Aérodrome :
LOGIN :

S'inscrire | Disclaimer

   EN    FR    IT 

 










Légende :    VFR   VFR Marginal   IFR   IFR Intensif   IFR Très Intensif
Visi : 
Plafond : 
>= 8 km
>= 3000ft
5 à 8 km
1000 à 3000 ft
1500m à 5 km
500 à 1000 ft
800 à 1500m
200 à 500 ft
< 800m
< 200 ft
Symboles :   Orages  Brouillard  Fortes neiges  Fortes précipitations  Vent > 20 kt
SIGMETs :   Divers  Orages  Givrage  Turbulence  Onde Orograph.  Cendres Volcan.







- Altitude de l'aérodrome : 863 ft
- Code IATA : ZAZ


LEZG - Zaragoza Aragon

DERNIER METAR :
  • 211930Z 29005KT CAVOK 30/12 Q1015

METARs EXPIRÉS :
  • 211900Z 30004KT CAVOK 32/12 Q1015
  • 211830Z 33004KT 270V360 CAVOK 33/11 Q1015
  • 211800Z 31004KT 280V010 CAVOK 34/12 Q1015
  • 211730Z 29003KT 9999 FEW045 34/10 Q1015
  • 211700Z VRB02KT 9999 FEW045 35/10 Q1015

TAF TAF LEZG
Valide du 21 à 18h jusqu'au 22 à 18h UTC


211700Z 2118/2218 VRB04KT 9999 FEW040 TX32/2214Z TN20/2206Z
BECMG 2119/2121 30015KT
PROB40
TEMPO 2120/2218 30018G28KT
Pas de NOTAMs connus pour ce terrain.
1 SIGMET publié pour la FIR Madrid (LECM) :
 
Orages noyés dans la masse
LECM SIGMET 6 VALID 211900/212100 LEVA
LECM MADRID FIR/UIR EMBD TS OBS AT 1848Z W OF LINE N3858 W00501 - N4256 W00501 TOP FL360 MOV NW 10KT NC=



MET'MAP, la Météo Aéronautique d'un coup d'oeil ! - Copyright ORBIFLY Décembre 2007 - Disclaimer

ORBIFLY MET'MAP TEAM :

Programmation & Développement : Alexandra Zaïnal
Conception & Développement : Baudouin d'Aumeries
Co-Programmation & Développement : Marc-Olivier Méhu
Soutien technique & logistique : Manuel Goepfert

Contact : metmap@orbifly.com




SOURCES & CREDITS :

   NOAA